Terminal Aerodrome Forecast
Issued by NWS Tuscon, AZ

Home | Current Version | Previous Version | Text Only | Print | Product List | Glossary On
Versions: 1 2 3 4 5 6 7 8 9 10 11 12 13 14 15
000
FTUS45 KTWC 302327
TAFDUG
TAF
KDUG 302327Z 3100/3124 21018G26KT P6SM SCT070
     FM310200 25008KT P6SM FEW070
     FM310800 VRB05KT P6SM SKC
     FM311900 22012G20KT P6SM SCT130=

USA.gov is the U.S. government's official web portal to all federal, state and local government web resources and services.